createdAt,value
2022-11-05T00:00:33.238Z,80.96
2022-11-05T00:03:18.631Z,81.24
2022-11-05T00:06:20.426Z,80.87
2022-11-05T00:09:05.249Z,81.27
2022-11-05T00:11:50.342Z,80.88
2022-11-05T00:14:35.069Z,81.30
2022-11-05T00:17:01.412Z,81.10
2022-11-05T00:19:27.812Z,81.27
2022-11-05T00:22:12.825Z,81.20
2022-11-05T00:24:57.846Z,80.75
2022-11-05T00:27:24.184Z,80.74
2022-11-05T00:29:50.558Z,80.77
2022-11-05T00:32:16.903Z,80.71
2022-11-05T00:34:43.283Z,81.00
2022-11-05T00:37:09.596Z,80.69
2022-11-05T00:39:35.926Z,80.38
2022-11-05T00:42:20.989Z,80.46
2022-11-05T00:45:00.744Z,80.04
2022-11-05T00:47:45.587Z,80.42
2022-11-05T00:50:12.357Z,80.16
2022-11-05T00:52:58.192Z,80.19
2022-11-05T00:55:33.595Z,80.00
2022-11-05T00:58:01.826Z,80.64
2022-11-05T01:00:30.126Z,80.17
2022-11-05T01:03:11.508Z,79.67
2022-11-05T01:05:41.258Z,79.33
2022-11-05T01:08:09.607Z,78.46
2022-11-05T01:10:51.221Z,78.53
2022-11-05T01:13:22.309Z,79.41
2022-11-05T01:15:50.808Z,78.82
2022-11-05T01:18:19.103Z,78.56
2022-11-05T01:20:46.268Z,78.60
2022-11-05T01:23:13.916Z,78.34
2022-11-05T01:25:41.733Z,77.94
2022-11-05T01:28:09.517Z,77.48
2022-11-05T01:30:36.747Z,77.49
2022-11-05T01:33:03.435Z,77.97
2022-11-05T01:35:29.938Z,78.58
2022-11-05T01:37:56.276Z,79.17
2022-11-05T01:40:24.225Z,79.13
2022-11-05T01:42:50.605Z,79.13
2022-11-05T01:45:25.966Z,79.92
2022-11-05T01:48:04.582Z,79.02
2022-11-05T01:50:43.235Z,79.21
2022-11-05T01:53:18.523Z,79.89
2022-11-05T01:55:54.239Z,79.92
2022-11-05T01:58:24.460Z,79.89
2022-11-05T02:00:51.155Z,80.31
2022-11-05T02:03:18.743Z,80.30
2022-11-05T02:05:46.001Z,80.73
2022-11-05T02:08:21.506Z,80.95
2022-11-05T02:10:48.580Z,80.63
2022-11-05T02:13:15.103Z,80.83
2022-11-05T02:16:09.688Z,80.83
2022-11-05T02:19:06.130Z,81.11
2022-11-05T02:21:56.499Z,80.90
2022-11-05T02:24:54.188Z,80.82
2022-11-05T02:27:57.449Z,80.86
2022-11-05T02:30:45.571Z,81.20
2022-11-05T02:33:33.777Z,81.42
2022-11-05T02:36:31.236Z,81.21
2022-11-05T02:39:12.881Z,80.94
2022-11-05T02:41:59.279Z,80.61
2022-11-05T02:45:00.935Z,80.16
2022-11-05T02:47:44.088Z,80.93
2022-11-05T02:50:20.221Z,80.39
2022-11-05T02:52:57.906Z,80.45
2022-11-05T02:55:34.472Z,80.25
2022-11-05T02:58:03.148Z,80.14
2022-11-05T03:00:38.479Z,80.36
2022-11-05T03:03:07.755Z,80.59
2022-11-05T03:05:44.262Z,80.29
2022-11-05T03:08:25.006Z,80.76
2022-11-05T03:11:21.769Z,80.95
2022-11-05T03:14:12.627Z,80.99
2022-11-05T03:16:42.046Z,81.27
2022-11-05T03:19:28.245Z,81.10
2022-11-05T03:22:14.222Z,80.89
2022-11-05T03:24:46.505Z,80.80
2022-11-05T03:27:19.608Z,80.92
2022-11-05T03:29:53.439Z,80.43
2022-11-05T03:32:22.365Z,80.15
2022-11-05T03:34:56.714Z,79.64
2022-11-05T03:37:26.965Z,79.96
2022-11-05T03:39:58.547Z,80.83
2022-11-05T03:42:29.817Z,80.13
2022-11-05T03:44:59.536Z,80.83
2022-11-05T03:47:32.524Z,80.83
2022-11-05T03:50:17.682Z,80.83
2022-11-05T03:52:52.499Z,80.89
2022-11-05T03:55:24.522Z,81.02
2022-11-05T03:57:55.507Z,81.05
2022-11-05T04:00:23.473Z,81.11
2022-11-05T04:02:50.213Z,81.86
2022-11-05T04:05:16.814Z,81.79
2022-11-05T04:08:03.054Z,81.80
2022-11-05T04:10:47.752Z,81.87
2022-11-05T04:13:25.861Z,81.80
2022-11-05T04:16:11.832Z,81.66
2022-11-05T04:18:38.478Z,81.81
2022-11-05T04:21:24.489Z,81.47
2022-11-05T04:24:09.997Z,81.58
2022-11-05T04:26:39.213Z,80.83
2022-11-05T04:29:24.690Z,80.84
2022-11-05T04:31:51.183Z,80.71
2022-11-05T04:34:18.865Z,80.70
2022-11-05T04:36:46.208Z,80.78
2022-11-05T04:39:12.628Z,80.81
2022-11-05T04:41:38.966Z,80.80
2022-11-05T04:44:05.333Z,80.70
2022-11-05T04:46:31.659Z,81.54
2022-11-05T04:48:57.948Z,81.55
2022-11-05T04:51:24.265Z,81.48
2022-11-05T04:53:50.596Z,81.89
2022-11-05T04:56:23.150Z,81.19
2022-11-05T04:58:49.682Z,81.56
2022-11-05T05:01:18.471Z,81.49
2022-11-05T05:03:48.276Z,81.31
2022-11-05T05:06:14.704Z,81.35
2022-11-05T05:08:41.187Z,81.50
2022-11-05T05:11:10.731Z,81.39
2022-11-05T05:13:37.917Z,81.26
2022-11-05T05:16:09.516Z,80.86
2022-11-05T05:18:35.962Z,80.93
2022-11-05T05:21:21.290Z,81.01
2022-11-05T05:23:48.463Z,81.13
2022-11-05T05:26:17.948Z,81.15
2022-11-05T05:28:44.329Z,81.36
2022-11-05T05:31:10.784Z,81.41
2022-11-05T05:33:37.138Z,81.50
2022-11-05T05:36:08.502Z,82.01
2022-11-05T05:38:37.356Z,81.90
2022-11-05T05:41:03.689Z,81.47
2022-11-05T05:43:33.954Z,81.70
2022-11-05T05:46:04.893Z,81.70
2022-11-05T05:48:31.485Z,81.80
2022-11-05T05:51:02.210Z,81.87
2022-11-05T05:53:29.428Z,81.85
2022-11-05T05:55:56.290Z,81.65
2022-11-05T05:58:23.849Z,81.39
2022-11-05T06:00:50.173Z,81.52
2022-11-05T06:03:16.497Z,82.26
2022-11-05T06:05:42.813Z,81.92
2022-11-05T06:08:09.130Z,82.31
2022-11-05T06:10:35.755Z,82.27
2022-11-05T06:13:02.555Z,82.49
2022-11-05T06:15:34.600Z,82.16
2022-11-05T06:18:02.102Z,82.26
2022-11-05T06:20:28.422Z,81.73
2022-11-05T06:22:56.199Z,81.46
2022-11-05T06:25:22.562Z,81.43
2022-11-05T06:27:48.855Z,81.97
2022-11-05T06:30:15.497Z,81.29
2022-11-05T06:32:41.809Z,81.65
2022-11-05T06:35:09.243Z,82.26
2022-11-05T06:37:35.832Z,82.21
2022-11-05T06:40:02.205Z,81.55
2022-11-05T06:42:28.511Z,81.39
2022-11-05T06:44:55.180Z,81.32
2022-11-05T06:47:22.106Z,81.48
2022-11-05T06:49:48.860Z,81.36
2022-11-05T06:52:15.790Z,81.54
2022-11-05T06:54:43.721Z,81.41
2022-11-05T06:57:11.777Z,81.08
2022-11-05T06:59:39.235Z,80.60
2022-11-05T07:02:06.727Z,80.45
2022-11-05T07:04:33.654Z,80.57
2022-11-05T07:07:00.931Z,80.96
2022-11-05T07:09:28.477Z,81.41
2022-11-05T07:11:55.664Z,81.67
2022-11-05T07:14:22.003Z,81.31
2022-11-05T07:16:50.121Z,80.75
2022-11-05T07:19:16.445Z,80.39
2022-11-05T07:21:42.914Z,80.36
2022-11-05T07:24:09.224Z,80.92
2022-11-05T07:26:35.570Z,80.75
2022-11-05T07:29:02.034Z,80.50
2022-11-05T07:31:28.338Z,80.81
2022-11-05T07:33:54.691Z,80.74
2022-11-05T07:36:21.019Z,80.66
2022-11-05T07:38:47.359Z,80.09
2022-11-05T07:41:13.724Z,80.10
2022-11-05T07:43:40.042Z,79.77
2022-11-05T07:46:11.154Z,79.30
2022-11-05T07:48:39.889Z,79.77
2022-11-05T07:51:06.280Z,79.78
2022-11-05T07:53:32.602Z,80.21
2022-11-05T07:55:58.924Z,80.51
2022-11-05T07:58:25.271Z,80.11
2022-11-05T08:00:51.720Z,79.96
2022-11-05T08:03:18.739Z,80.68
2022-11-05T08:05:47.062Z,79.92
2022-11-05T08:08:15.443Z,80.06
2022-11-05T08:10:42.268Z,80.43
2022-11-05T08:13:09.501Z,80.23
2022-11-05T08:15:36.583Z,80.33
2022-11-05T08:18:12.253Z,80.25
2022-11-05T08:20:40.379Z,80.10
2022-11-05T08:23:06.794Z,79.49
2022-11-05T08:25:33.622Z,79.31
2022-11-05T08:28:02.434Z,79.28
2022-11-05T08:30:29.330Z,78.61
2022-11-05T08:33:00.456Z,79.00
2022-11-05T08:35:27.370Z,78.85
2022-11-05T08:38:02.619Z,78.95
2022-11-05T08:40:31.469Z,78.60
2022-11-05T08:42:59.436Z,78.47
2022-11-05T08:45:27.024Z,78.58
2022-11-05T08:48:05.774Z,78.11
2022-11-05T08:50:32.400Z,78.13
2022-11-05T08:52:59.387Z,77.53
2022-11-05T08:55:26.577Z,78.29
2022-11-05T08:57:57.461Z,77.54
2022-11-05T09:00:24.448Z,77.05
2022-11-05T09:02:50.812Z,77.01
2022-11-05T09:05:17.192Z,76.75
2022-11-05T09:07:43.597Z,76.27
2022-11-05T09:10:10.644Z,75.92
2022-11-05T09:12:36.955Z,75.21
2022-11-05T09:15:03.714Z,75.90
2022-11-05T09:17:30.052Z,75.22
2022-11-05T09:19:56.359Z,74.60
2022-11-05T09:22:22.702Z,74.45
2022-11-05T09:24:49.005Z,74.28
2022-11-05T09:27:15.350Z,74.67
2022-11-05T09:29:42.430Z,74.08
2022-11-05T09:32:09.321Z,73.90
2022-11-05T09:34:36.301Z,73.48
2022-11-05T09:37:02.958Z,73.26
2022-11-05T09:39:30.089Z,73.33
2022-11-05T09:42:04.784Z,72.79
2022-11-05T09:44:49.140Z,72.07
2022-11-05T09:47:24.782Z,71.26
2022-11-05T09:49:56.511Z,71.56
2022-11-05T09:52:27.880Z,71.45
2022-11-05T09:54:55.561Z,70.88
2022-11-05T09:57:45.007Z,70.42
2022-11-05T10:00:16.449Z,70.10
2022-11-05T10:02:56.285Z,70.23
2022-11-05T10:05:25.138Z,69.31
2022-11-05T10:07:57.326Z,67.46
2022-11-05T10:10:37.864Z,61.48
2022-11-05T10:13:33.950Z,58.04
2022-11-05T10:16:06.565Z,56.62
2022-11-05T10:18:36.809Z,56.91
2022-11-05T10:21:03.839Z,56.97
2022-11-05T10:23:30.327Z,54.09
2022-11-05T10:26:02.853Z,51.73
2022-11-05T10:28:31.807Z,51.45
2022-11-05T10:31:04.690Z,49.96
2022-11-05T10:33:42.389Z,47.38
2022-11-05T10:36:24.921Z,45.05
2022-11-05T10:38:52.961Z,43.95
2022-11-05T10:41:42.622Z,43.02
2022-11-05T10:44:48.457Z,43.04
2022-11-05T10:47:36.446Z,43.47
2022-11-05T10:50:09.901Z,42.78
2022-11-05T10:52:50.731Z,44.73
2022-11-05T10:55:23.983Z,46.43
2022-11-05T10:57:50.664Z,46.57
2022-11-05T11:00:16.966Z,44.90
2022-11-05T11:02:49.125Z,47.79
2022-11-05T11:05:32.237Z,49.55
2022-11-05T11:08:18.096Z,52.10
2022-11-05T11:11:02.032Z,54.15
2022-11-05T11:13:48.484Z,55.95
2022-11-05T11:16:19.971Z,57.35
2022-11-05T11:18:46.359Z,57.07
2022-11-05T11:21:23.184Z,58.32
2022-11-05T11:24:18.744Z,59.21
2022-11-05T11:26:45.178Z,60.31
2022-11-05T11:29:24.035Z,61.22
2022-11-05T11:31:54.793Z,62.38
2022-11-05T11:34:33.658Z,62.06
2022-11-05T11:37:19.351Z,62.47
2022-11-05T11:39:51.782Z,62.15
2022-11-05T11:42:29.300Z,61.83
2022-11-05T11:44:59.097Z,62.55
2022-11-05T11:47:28.050Z,61.73
2022-11-05T11:49:57.122Z,62.57
2022-11-05T11:52:31.202Z,63.04
2022-11-05T11:55:12.783Z,62.00
2022-11-05T11:57:51.969Z,62.06
2022-11-05T12:00:20.540Z,61.49
2022-11-05T12:03:16.493Z,61.03
2022-11-05T12:06:10.781Z,61.17
2022-11-05T12:09:06.428Z,60.17
2022-11-05T12:11:41.947Z,61.22
2022-11-05T12:14:32.393Z,60.71
2022-11-05T12:17:09.729Z,61.00
2022-11-05T12:19:52.381Z,60.56
2022-11-05T12:22:51.925Z,59.57
2022-11-05T12:25:49.194Z,59.46
2022-11-05T12:28:18.536Z,60.27
2022-11-05T12:31:00.479Z,60.03
2022-11-05T12:33:39.239Z,59.30
2022-11-05T12:36:15.471Z,59.80
2022-11-05T12:38:58.834Z,58.32
2022-11-05T12:41:55.098Z,58.41
2022-11-05T12:44:38.808Z,59.05
2022-11-05T12:47:35.112Z,58.29
2022-11-05T12:50:20.233Z,58.89
2022-11-05T12:53:05.176Z,58.42
2022-11-05T12:55:39.477Z,56.05
2022-11-05T12:58:12.901Z,56.88
2022-11-05T13:00:44.388Z,57.60
2022-11-05T13:03:36.050Z,56.56
2022-11-05T13:06:09.946Z,55.10
2022-11-05T13:08:47.858Z,55.09
2022-11-05T13:11:23.619Z,55.45
2022-11-05T13:14:09.888Z,54.19
2022-11-05T13:16:40.260Z,53.76
2022-11-05T13:19:28.119Z,54.71
2022-11-05T13:22:09.556Z,55.04
2022-11-05T13:24:49.675Z,55.69
2022-11-05T13:27:19.056Z,54.84
2022-11-05T13:29:58.023Z,54.76
2022-11-05T13:32:24.264Z,54.84
2022-11-05T13:34:59.327Z,54.03
2022-11-05T13:37:52.773Z,54.80
2022-11-05T13:40:25.484Z,54.54
2022-11-05T13:43:27.940Z,54.82
2022-11-05T13:46:12.160Z,54.33
2022-11-05T13:48:54.648Z,55.19
2022-11-05T13:51:39.201Z,55.09
2022-11-05T13:54:34.252Z,55.40
2022-11-05T13:57:32.608Z,55.58
2022-11-05T14:00:16.018Z,53.12
2022-11-05T14:03:05.024Z,54.16
2022-11-05T14:05:41.326Z,54.93
2022-11-05T14:08:12.297Z,55.14
2022-11-05T14:10:41.604Z,54.95
2022-11-05T14:13:34.944Z,55.44
2022-11-05T14:16:09.685Z,55.26
2022-11-05T14:18:35.928Z,55.89
2022-11-05T14:21:04.296Z,55.21
2022-11-05T14:23:30.724Z,54.71
2022-11-05T14:26:13.031Z,55.57
2022-11-05T14:28:45.856Z,56.59
2022-11-05T14:31:18.122Z,56.43
2022-11-05T14:33:54.984Z,55.77
2022-11-05T14:36:21.228Z,55.85
2022-11-05T14:38:53.352Z,56.77
2022-11-05T14:41:20.893Z,56.23
2022-11-05T14:44:01.373Z,55.95
2022-11-05T14:46:42.910Z,55.07
2022-11-05T14:49:17.439Z,55.79
2022-11-05T14:51:53.046Z,56.31
2022-11-05T14:54:41.172Z,55.96
2022-11-05T14:57:12.533Z,56.40
2022-11-05T14:59:52.766Z,56.31
2022-11-05T15:02:26.518Z,56.13
2022-11-05T15:05:31.263Z,55.92
2022-11-05T15:07:58.412Z,56.95
2022-11-05T15:10:35.002Z,56.66
2022-11-05T15:13:06.110Z,57.29
2022-11-05T15:15:43.539Z,57.30
2022-11-05T15:18:29.552Z,57.63
2022-11-05T15:21:00.706Z,57.34
2022-11-05T15:23:36.362Z,57.40
2022-11-05T15:26:27.491Z,57.22
2022-11-05T15:28:55.327Z,57.58
2022-11-05T15:31:30.777Z,58.09
2022-11-05T15:34:15.243Z,58.55
2022-11-05T15:36:48.651Z,58.23
2022-11-05T15:39:29.959Z,58.38
2022-11-05T15:41:59.199Z,58.82
2022-11-05T15:44:38.752Z,59.03
2022-11-05T15:47:07.274Z,59.08
2022-11-05T15:49:33.984Z,59.37
2022-11-05T15:52:00.361Z,59.70
2022-11-05T15:54:30.808Z,59.99
2022-11-05T15:56:59.673Z,60.39
2022-11-05T15:59:29.119Z,59.72
2022-11-05T16:02:18.288Z,59.94
2022-11-05T16:04:48.101Z,60.41
2022-11-05T16:07:15.592Z,60.51
2022-11-05T16:09:49.965Z,61.62
2022-11-05T16:12:19.292Z,61.22
2022-11-05T16:15:17.227Z,60.95
2022-11-05T16:17:53.445Z,61.44
2022-11-05T16:20:22.974Z,61.05
2022-11-05T16:22:52.842Z,61.33
2022-11-05T16:25:26.973Z,61.08
2022-11-05T16:27:53.369Z,61.87
2022-11-05T16:30:20.064Z,62.15
2022-11-05T16:32:47.204Z,62.11
2022-11-05T16:35:24.131Z,62.83
2022-11-05T16:37:52.645Z,61.96
2022-11-05T16:40:25.244Z,62.52
2022-11-05T16:42:53.714Z,62.74
2022-11-05T16:45:23.804Z,62.17
2022-11-05T16:47:50.998Z,63.08
2022-11-05T16:50:18.766Z,62.59
2022-11-05T16:52:46.553Z,62.81
2022-11-05T16:55:14.465Z,63.14
2022-11-05T16:57:42.906Z,62.94
2022-11-05T17:00:13.400Z,63.05
2022-11-05T17:02:39.924Z,63.60
2022-11-05T17:05:16.341Z,63.35
2022-11-05T17:07:42.840Z,63.84
2022-11-05T17:10:09.234Z,63.55
2022-11-05T17:12:36.261Z,63.36
2022-11-05T17:15:02.592Z,63.44
2022-11-05T17:17:29.092Z,63.62
2022-11-05T17:19:55.489Z,63.16
2022-11-05T17:22:21.810Z,63.49
2022-11-05T17:24:48.130Z,64.00
2022-11-05T17:27:14.703Z,63.53
2022-11-05T17:29:41.005Z,64.26
2022-11-05T17:32:07.630Z,63.93
2022-11-05T17:34:33.924Z,63.92
2022-11-05T17:37:00.225Z,63.77
2022-11-05T17:39:31.431Z,64.22
2022-11-05T17:41:58.265Z,64.23
2022-11-05T17:44:24.549Z,64.28
2022-11-05T17:46:51.137Z,63.54
2022-11-05T17:49:17.469Z,64.00
2022-11-05T17:51:43.806Z,64.39
2022-11-05T17:54:10.221Z,65.56
2022-11-05T17:56:41.712Z,64.89
2022-11-05T17:59:10.576Z,65.54
2022-11-05T18:01:41.308Z,65.02
2022-11-05T18:04:09.149Z,64.70
2022-11-05T18:06:37.330Z,65.24
2022-11-05T18:09:05.487Z,65.20
2022-11-05T18:11:32.408Z,65.07
2022-11-05T18:13:58.895Z,64.58
2022-11-05T18:16:25.297Z,64.45
2022-11-05T18:18:51.594Z,64.75
2022-11-05T18:21:17.941Z,65.43
2022-11-05T18:23:44.308Z,65.86
2022-11-05T18:26:12.252Z,65.27
2022-11-05T18:28:39.252Z,64.82
2022-11-05T18:31:16.841Z,65.08
2022-11-05T18:33:44.465Z,65.04
2022-11-05T18:36:19.233Z,64.90
2022-11-05T18:38:46.004Z,64.93
2022-11-05T18:41:12.332Z,65.47
2022-11-05T18:43:38.631Z,64.79
2022-11-05T18:46:06.082Z,64.67
2022-11-05T18:48:32.403Z,64.93
2022-11-05T18:51:01.839Z,64.57
2022-11-05T18:53:28.604Z,64.63
2022-11-05T18:55:54.956Z,64.56
2022-11-05T18:58:21.259Z,64.42
2022-11-05T19:00:47.562Z,64.42
2022-11-05T19:03:13.888Z,64.97
2022-11-05T19:05:40.187Z,64.45
2022-11-05T19:08:06.587Z,63.86
2022-11-05T19:10:32.902Z,64.46
2022-11-05T19:12:59.219Z,64.58
2022-11-05T19:15:25.536Z,64.77
2022-11-05T19:17:51.849Z,65.01
2022-11-05T19:20:18.165Z,64.60
2022-11-05T19:22:44.477Z,64.38
2022-11-05T19:25:10.852Z,64.62
2022-11-05T19:27:38.498Z,65.21
2022-11-05T19:30:06.103Z,64.97
2022-11-05T19:32:32.563Z,65.35
2022-11-05T19:34:58.856Z,65.09
2022-11-05T19:37:25.247Z,64.45
2022-11-05T19:39:52.006Z,64.52
2022-11-05T19:42:18.311Z,64.20
2022-11-05T19:44:44.621Z,64.27
2022-11-05T19:47:11.095Z,63.85
2022-11-05T19:49:37.407Z,63.93
2022-11-05T19:52:03.779Z,64.50
2022-11-05T19:54:30.134Z,64.32
2022-11-05T19:56:56.459Z,64.33
2022-11-05T19:59:22.756Z,64.17
2022-11-05T20:01:53.331Z,64.07
2022-11-05T20:04:23.396Z,64.38
2022-11-05T20:06:49.712Z,63.87
2022-11-05T20:09:23.486Z,64.12
2022-11-05T20:11:53.654Z,64.38
2022-11-05T20:14:20.019Z,63.87
2022-11-05T20:16:46.956Z,64.11
2022-11-05T20:19:16.599Z,64.12
2022-11-05T20:21:43.243Z,63.99
2022-11-05T20:24:12.342Z,64.30
2022-11-05T20:26:38.791Z,64.26
2022-11-05T20:29:05.420Z,63.85
2022-11-05T20:31:32.049Z,63.83
2022-11-05T20:33:58.429Z,63.77
2022-11-05T20:36:25.964Z,63.68
2022-11-05T20:38:55.207Z,64.30
2022-11-05T20:41:21.627Z,64.21
2022-11-05T20:43:48.052Z,63.88
2022-11-05T20:46:17.016Z,63.74
2022-11-05T20:48:44.113Z,63.56
2022-11-05T20:51:17.486Z,63.64
2022-11-05T20:53:46.016Z,63.68
2022-11-05T20:56:23.074Z,63.31
2022-11-05T20:58:50.308Z,63.86
2022-11-05T21:01:17.574Z,63.58
2022-11-05T21:03:45.069Z,64.28
2022-11-05T21:06:11.801Z,64.00
2022-11-05T21:08:38.263Z,64.00
2022-11-05T21:11:05.239Z,64.31
2022-11-05T21:13:31.600Z,63.97
2022-11-05T21:15:59.916Z,64.32
2022-11-05T21:18:29.333Z,64.06
2022-11-05T21:20:56.131Z,64.47
2022-11-05T21:23:23.103Z,63.97
2022-11-05T21:25:49.590Z,64.49
2022-11-05T21:28:16.618Z,64.38
2022-11-05T21:30:45.730Z,63.74
2022-11-05T21:33:13.939Z,64.15
2022-11-05T21:35:43.707Z,64.15
2022-11-05T21:38:11.810Z,63.99
2022-11-05T21:40:38.806Z,64.35
2022-11-05T21:43:05.645Z,64.19
2022-11-05T21:45:32.443Z,64.48
2022-11-05T21:47:58.981Z,63.99
2022-11-05T21:50:44.076Z,64.86
2022-11-05T21:53:35.615Z,64.44
2022-11-05T21:56:37.549Z,64.40
2022-11-05T21:59:23.754Z,65.46
2022-11-05T22:01:50.644Z,65.20
2022-11-05T22:04:17.138Z,65.21
2022-11-05T22:06:43.521Z,64.93
2022-11-05T22:09:09.882Z,64.45
2022-11-05T22:11:37.395Z,64.58
2022-11-05T22:14:04.260Z,65.14
2022-11-05T22:16:30.572Z,64.92
2022-11-05T22:18:57.914Z,65.02
2022-11-05T22:21:24.308Z,64.78
2022-11-05T22:23:52.080Z,64.67
2022-11-05T22:26:18.680Z,65.16
2022-11-05T22:28:45.052Z,64.93
2022-11-05T22:31:16.241Z,64.88
2022-11-05T22:33:43.365Z,64.65
2022-11-05T22:36:10.087Z,65.09
2022-11-05T22:38:36.474Z,64.90
2022-11-05T22:41:11.130Z,65.66
2022-11-05T22:43:38.208Z,64.50
2022-11-05T22:46:06.623Z,64.93
2022-11-05T22:48:35.532Z,65.01
2022-11-05T22:51:10.640Z,65.37
2022-11-05T22:53:37.750Z,64.79
2022-11-05T22:56:15.791Z,65.07
2022-11-05T22:58:42.912Z,65.39
2022-11-05T23:01:14.019Z,65.14
2022-11-05T23:03:42.023Z,65.10
2022-11-05T23:06:38.716Z,64.87
2022-11-05T23:09:32.894Z,64.72
2022-11-05T23:12:00.653Z,65.01
2022-11-05T23:14:27.068Z,65.31
2022-11-05T23:17:12.171Z,65.32
2022-11-05T23:19:56.760Z,65.73
2022-11-05T23:22:43.509Z,65.51
2022-11-05T23:25:17.135Z,65.52
2022-11-05T23:27:45.161Z,65.61
2022-11-05T23:30:14.933Z,65.80
2022-11-05T23:32:41.543Z,65.91
2022-11-05T23:35:08.620Z,65.84
2022-11-05T23:37:53.463Z,66.31
2022-11-05T23:40:25.951Z,66.07
2022-11-05T23:43:11.337Z,66.67
2022-11-05T23:45:55.039Z,66.21
2022-11-05T23:48:27.594Z,66.11
2022-11-05T23:51:08.864Z,66.17
2022-11-05T23:53:37.354Z,66.37
2022-11-05T23:56:12.623Z,66.34
2022-11-05T23:58:40.172Z,66.83
